Time;durP1;ratioP1;P1;durP2;ratioP2;P2;SDS_P1;SDS_P2;PMS_P1;PMS_P2;Temp;Humidity;BMP_temperature;BMP_pressure;BME280_temperature;BME280_humidity;BME280_pressure;Samples;Min_cycle;Max_cycle;Signal;HPM_P1;HPM_P2
2021/03/10 00:01:52;;;;;;;7.93;3.38;;;6.40;82.90;;;;;;5007622;28;20388;-73
2021/03/10 00:04:18;;;;;;;7.00;3.33;;;6.40;83.00;;;;;;4993496;28;20129;-73
2021/03/10 00:06:43;;;;;;;5.00;2.60;;;6.30;83.00;;;;;;4992668;28;20019;-73
2021/03/10 00:09:09;;;;;;;6.43;2.80;;;6.30;83.00;;;;;;4993107;28;20459;-73
2021/03/10 00:11:35;;;;;;;7.60;2.65;;;6.30;83.10;;;;;;4993048;28;20046;-73
2021/03/10 00:14:00;;;;;;;7.95;2.92;;;6.20;83.00;;;;;;4992704;28;20223;-73
2021/03/10 00:16:26;;;;;;;7.47;2.83;;;6.20;83.10;;;;;;4993539;28;20465;-72
2021/03/10 00:18:52;;;;;;;6.63;2.97;;;6.20;83.10;;;;;;4992717;28;20057;-71
2021/03/10 00:21:19;;;;;;;11.38;3.03;;;6.20;83.10;;;;;;4992351;28;20048;-73
2021/03/10 00:23:45;;;;;;;5.60;2.58;;;6.20;83.10;;;;;;4991457;28;20031;-74
2021/03/10 00:26:11;;;;;;;7.20;2.47;;;6.10;83.10;;;;;;4992127;28;20026;-72
2021/03/10 00:28:36;;;;;;;8.93;3.03;;;6.20;83.20;;;;;;4992275;28;20038;-73
2021/03/10 00:31:02;;;;;;;6.15;2.85;;;6.20;83.00;;;;;;4991114;28;20496;-73
2021/03/10 00:33:28;;;;;;;7.28;2.80;;;6.30;82.90;;;;;;4991442;28;20069;-73
2021/03/10 00:35:53;;;;;;;8.30;3.22;;;6.30;82.60;;;;;;4991146;28;20080;-73
2021/03/10 00:38:19;;;;;;;9.05;3.20;;;6.30;82.40;;;;;;4990553;28;20045;-73
2021/03/10 00:40:45;;;;;;;7.40;3.08;;;6.40;82.40;;;;;;4991504;28;20028;-73
2021/03/10 00:43:10;;;;;;;6.60;3.05;;;6.40;82.40;;;;;;4991759;28;20113;-73
2021/03/10 00:45:36;;;;;;;7.25;2.38;;;6.40;82.40;;;;;;4991954;28;20527;-73
2021/03/10 00:48:02;;;;;;;9.30;3.40;;;6.40;82.40;;;;;;4991086;28;20145;-73
2021/03/10 00:50:28;;;;;;;5.95;2.78;;;6.40;82.50;;;;;;4991532;28;20068;-73
2021/03/10 00:52:55;;;;;;;5.68;2.90;;;6.50;82.20;;;;;;4991899;28;20022;-73
2021/03/10 00:55:21;;;;;;;4.80;2.10;;;6.50;82.00;;;;;;4992485;28;20515;-73
2021/03/10 00:58:05;;;;;;;9.35;3.20;;;6.50;81.90;;;;;;4991605;28;20030;-73
2021/03/10 01:00:31;;;;;;;5.75;2.88;;;6.50;82.00;;;;;;4992518;28;20026;-73
2021/03/10 01:02:56;;;;;;;7.63;2.70;;;6.40;82.20;;;;;;4991785;28;20029;-73
2021/03/10 01:05:22;;;;;;;5.95;2.53;;;6.40;82.40;;;;;;4992232;28;20093;-73
2021/03/10 01:07:48;;;;;;;7.18;2.80;;;6.30;82.60;;;;;;4991690;28;20057;-73
2021/03/10 01:10:14;;;;;;;6.63;2.50;;;6.30;82.70;;;;;;4992049;28;20034;-74
2021/03/10 01:12:40;;;;;;;8.75;3.55;;;6.20;82.80;;;;;;4990963;28;20022;-73
2021/03/10 01:15:12;;;;;;;8.05;2.55;;;6.20;82.80;;;;;;4991662;28;20010;-73
2021/03/10 01:17:38;;;;;;;9.70;3.15;;;6.20;82.90;;;;;;4992358;28;20019;-73
2021/03/10 01:20:10;;;;;;;7.90;2.80;;;6.10;82.90;;;;;;4991579;28;20030;-73
2021/03/10 01:22:36;;;;;;;9.20;3.30;;;6.20;83.10;;;;;;4991966;28;20047;-73
2021/03/10 01:25:03;;;;;;;6.60;2.70;;;6.10;83.10;;;;;;4991566;28;20487;-73
2021/03/10 01:27:29;;;;;;;12.18;3.28;;;6.10;83.70;;;;;;4992489;28;20107;-73
2021/03/10 01:29:55;;;;;;;6.82;3.35;;;6.10;83.10;;;;;;4991454;28;20165;-73
2021/03/10 01:32:20;;;;;;;6.50;2.80;;;6.00;83.20;;;;;;4991674;28;20100;-73
2021/03/10 01:34:46;;;;;;;6.70;2.50;;;6.00;83.10;;;;;;4991571;28;20499;-74
2021/03/10 01:37:11;;;;;;;6.38;2.70;;;6.00;83.20;;;;;;4992082;28;20032;-73
2021/03/10 01:39:37;;;;;;;6.00;2.88;;;6.00;83.20;;;;;;4992094;28;20030;-72
2021/03/10 01:42:04;;;;;;;8.85;3.35;;;6.00;83.20;;;;;;4990178;28;20023;-73
2021/03/10 01:44:31;;;;;;;8.00;2.70;;;6.00;83.20;;;;;;4991793;28;20023;-73
2021/03/10 01:46:56;;;;;;;6.30;3.00;;;5.90;83.20;;;;;;4994742;28;20030;-73
2021/03/10 01:49:22;;;;;;;10.27;3.80;;;5.90;83.30;;;;;;4995714;28;20474;-73
2021/03/10 01:51:48;;;;;;;8.02;3.65;;;5.90;83.20;;;;;;4994839;28;20065;-74
2021/03/10 01:54:14;;;;;;;9.75;3.05;;;5.90;83.20;;;;;;4995441;28;20069;-74
2021/03/10 01:56:42;;;;;;;7.15;2.55;;;5.90;83.30;;;;;;4995460;28;20030;-73
2021/03/10 01:59:08;;;;;;;5.93;2.83;;;5.80;83.20;;;;;;5009549;28;20234;-73
2021/03/10 02:01:34;;;;;;;10.32;3.90;;;5.80;83.20;;;;;;4995291;28;20049;-73
2021/03/10 02:04:07;;;;;;;8.00;3.40;;;5.80;83.20;;;;;;5009861;28;20381;-72
2021/03/10 02:06:54;;;;;;;7.47;2.72;;;5.80;83.30;;;;;;4995535;28;20027;-73
2021/03/10 02:09:50;;;;;;;10.20;2.97;;;5.80;83.30;;;;;;4995558;28;20253;-72
2021/03/10 02:12:30;;;;;;;8.85;3.35;;;5.80;83.30;;;;;;4995424;28;20030;-73
2021/03/10 02:15:14;;;;;;;9.02;3.17;;;5.70;83.30;;;;;;4994759;28;20044;-73
2021/03/10 02:17:46;;;;;;;8.65;3.25;;;5.70;83.30;;;;;;4995299;28;20131;-73
2021/03/10 02:20:28;;;;;;;10.35;3.80;;;5.70;83.40;;;;;;4994390;28;20026;-72
2021/03/10 02:23:06;;;;;;;5.90;3.00;;;5.70;83.40;;;;;;4994644;28;20047;-72
2021/03/10 02:25:44;;;;;;;8.27;3.10;;;5.60;83.30;;;;;;4993812;28;20507;-74
2021/03/10 02:28:11;;;;;;;6.43;2.75;;;5.60;83.40;;;;;;4993290;28;20376;-73
2021/03/10 02:30:45;;;;;;;15.63;4.20;;;5.60;83.40;;;;;;4994770;28;20098;-73
2021/03/10 02:33:19;;;;;;;5.40;2.90;;;5.60;83.40;;;;;;4994387;28;20057;-73
2021/03/10 02:35:58;;;;;;;9.30;3.63;;;5.60;83.50;;;;;;4995004;28;20109;-72
2021/03/10 02:38:26;;;;;;;7.95;2.80;;;5.60;83.50;;;;;;4994966;28;20057;-72
2021/03/10 02:40:53;;;;;;;6.03;3.25;;;5.60;83.50;;;;;;5009275;28;20042;-74
2021/03/10 02:43:21;;;;;;;9.98;2.95;;;5.50;83.40;;;;;;4993587;28;20022;-72
2021/03/10 02:45:49;;;;;;;9.32;3.30;;;5.50;83.50;;;;;;4994666;28;20113;-71
2021/03/10 02:48:16;;;;;;;12.10;3.22;;;5.50;83.40;;;;;;4994009;28;20090;-73
2021/03/10 02:50:42;;;;;;;8.00;2.78;;;5.50;83.40;;;;;;4994856;28;20062;-72
2021/03/10 02:53:08;;;;;;;7.30;2.60;;;5.50;83.30;;;;;;4994229;28;20022;-72
2021/03/10 02:55:39;;;;;;;7.30;3.08;;;5.60;83.30;;;;;;5009550;28;20018;-72
2021/03/10 02:58:07;;;;;;;9.32;3.05;;;5.60;83.20;;;;;;4992892;28;20098;-72
2021/03/10 03:00:33;;;;;;;6.78;2.88;;;5.60;83.20;;;;;;4993177;28;20023;-73
2021/03/10 03:02:59;;;;;;;7.85;2.80;;;5.60;83.10;;;;;;4994114;28;20022;-73
2021/03/10 03:05:24;;;;;;;7.40;2.88;;;5.60;83.10;;;;;;4994378;28;20114;-72
2021/03/10 03:07:51;;;;;;;7.38;2.75;;;5.60;83.10;;;;;;4993952;28;20034;-72
2021/03/10 03:10:21;;;;;;;7.18;3.65;;;5.60;83.00;;;;;;5008626;28;20026;-73
2021/03/10 03:12:48;;;;;;;7.10;2.80;;;5.60;82.90;;;;;;4994405;28;20022;-73
2021/03/10 03:15:19;;;;;;;8.13;3.22;;;5.70;82.90;;;;;;4992224;28;20108;-73
2021/03/10 03:17:45;;;;;;;7.88;2.90;;;5.70;82.80;;;;;;4994197;28;20114;-72
2021/03/10 03:20:13;;;;;;;9.40;3.40;;;5.70;82.80;;;;;;5008073;28;20034;-73
2021/03/10 03:22:44;;;;;;;8.25;3.70;;;5.70;82.70;;;;;;4993620;28;20058;-73
2021/03/10 03:25:16;;;;;;;7.85;3.17;;;5.80;82.80;;;;;;4993497;28;20468;-72
2021/03/10 03:27:55;;;;;;;8.38;3.28;;;5.80;82.80;;;;;;5008675;28;20030;-74
2021/03/10 03:30:23;;;;;;;9.65;3.08;;;5.80;82.70;;;;;;4993056;28;20031;-73
2021/03/10 03:32:50;;;;;;;9.57;3.90;;;5.80;82.70;;;;;;4993580;28;20097;-73
2021/03/10 03:35:17;;;;;;;10.23;4.07;;;5.80;82.60;;;;;;4992944;28;20050;-72
2021/03/10 03:37:48;;;;;;;6.95;2.92;;;5.80;82.60;;;;;;4993747;28;20030;-72
2021/03/10 03:40:16;;;;;;;6.45;2.78;;;5.80;82.60;;;;;;4992958;28;20057;-73
2021/03/10 03:42:42;;;;;;;8.55;2.83;;;5.80;82.60;;;;;;4993680;28;20027;-73
2021/03/10 03:45:08;;;;;;;10.35;3.67;;;5.90;82.60;;;;;;5008097;28;20027;-72
2021/03/10 03:47:35;;;;;;;9.23;3.55;;;5.90;82.70;;;;;;4993195;28;20098;-73
2021/03/10 03:50:01;;;;;;;8.00;3.20;;;5.90;82.50;;;;;;5007972;28;20038;-73
2021/03/10 03:52:26;;;;;;;11.57;3.72;;;5.90;82.50;;;;;;4993563;28;20097;-73
2021/03/10 03:54:52;;;;;;;11.63;3.95;;;6.00;82.50;;;;;;4993580;28;20034;-73
2021/03/10 03:57:18;;;;;;;6.25;2.78;;;6.00;82.40;;;;;;4992871;28;20415;-72
2021/03/10 03:59:43;;;;;;;8.15;3.80;;;5.90;82.40;;;;;;4992624;28;20027;-72
2021/03/10 04:02:09;;;;;;;12.00;3.72;;;6.00;82.50;;;;;;4991456;28;20030;-74
2021/03/10 04:04:34;;;;;;;8.68;3.20;;;6.00;82.40;;;;;;4993314;28;20495;-72
2021/03/10 04:07:00;;;;;;;8.85;3.28;;;6.00;82.40;;;;;;4992326;28;20056;-73
2021/03/10 04:09:26;;;;;;;10.23;3.47;;;6.00;82.40;;;;;;4992906;28;20034;-73
2021/03/10 04:11:52;;;;;;;7.25;3.75;;;6.00;82.40;;;;;;4992872;28;20019;-73
2021/03/10 04:14:18;;;;;;;11.55;3.50;;;6.00;82.40;;;;;;4992491;28;20037;-72
2021/03/10 04:16:44;;;;;;;9.25;3.00;;;6.10;82.50;;;;;;4993079;28;20105;-72
2021/03/10 04:19:10;;;;;;;11.23;4.75;;;6.00;82.40;;;;;;4992743;28;20121;-73
2021/03/10 04:21:37;;;;;;;9.50;4.15;;;6.00;82.40;;;;;;4992210;28;20078;-73
2021/03/10 04:24:04;;;;;;;11.60;3.85;;;6.00;82.40;;;;;;4991142;28;20537;-73
2021/03/10 04:26:30;;;;;;;11.48;3.88;;;6.10;82.50;;;;;;4991885;28;20023;-73
2021/03/10 04:28:56;;;;;;;13.45;3.63;;;6.10;82.50;;;;;;5002485;28;20038;-73
2021/03/10 04:31:22;;;;;;;8.98;3.35;;;6.10;82.50;;;;;;4991286;28;20520;-73
2021/03/10 04:33:47;;;;;;;7.65;2.78;;;6.10;82.50;;;;;;4991915;28;20038;-72
2021/03/10 04:36:13;;;;;;;9.70;4.03;;;6.10;82.50;;;;;;4991302;28;20033;-73
2021/03/10 04:38:39;;;;;;;8.35;3.67;;;6.10;82.60;;;;;;4991769;28;20100;-73
2021/03/10 04:41:04;;;;;;;10.40;4.22;;;6.00;82.60;;;;;;4990801;28;20065;-72
2021/03/10 04:43:30;;;;;;;7.22;3.25;;;6.10;82.70;;;;;;4991946;28;20022;-73
2021/03/10 04:45:56;;;;;;;9.80;4.38;;;6.00;82.70;;;;;;4991574;28;20027;-73
2021/03/10 04:48:22;;;;;;;7.57;3.03;;;6.00;82.70;;;;;;4990939;28;20050;-73
2021/03/10 04:50:48;;;;;;;8.95;3.53;;;6.10;82.70;;;;;;4991525;28;20504;-73
2021/03/10 04:53:14;;;;;;;8.50;3.38;;;6.10;82.70;;;;;;4991794;28;20030;-73
2021/03/10 04:55:39;;;;;;;9.00;3.67;;;6.10;82.60;;;;;;4991247;28;20019;-72
2021/03/10 04:58:05;;;;;;;9.60;3.28;;;6.20;82.60;;;;;;4991633;28;20493;-72
2021/03/10 05:00:31;;;;;;;7.47;2.95;;;6.20;82.50;;;;;;4992380;28;20026;-73
2021/03/10 05:02:57;;;;;;;5.50;3.20;;;6.20;82.50;;;;;;4992364;28;20030;-72
2021/03/10 05:05:22;;;;;;;8.50;3.72;;;6.20;82.60;;;;;;4991768;28;20030;-72
2021/03/10 05:07:49;;;;;;;6.93;3.00;;;6.20;82.60;;;;;;4992250;28;20038;-73
2021/03/10 05:10:15;;;;;;;10.73;3.83;;;6.20;82.60;;;;;;4991738;28;20022;-72
2021/03/10 05:12:41;;;;;;;8.10;3.30;;;6.20;82.60;;;;;;4992054;28;20395;-73
2021/03/10 05:15:07;;;;;;;12.95;4.45;;;6.20;82.60;;;;;;4991342;28;20038;-73
2021/03/10 05:17:33;;;;;;;13.15;5.15;;;6.20;82.60;;;;;;4992527;28;20029;-73
2021/03/10 05:19:59;;;;;;;14.52;3.67;;;6.20;82.70;;;;;;4992711;28;20033;-72
2021/03/10 05:22:26;;;;;;;8.07;3.67;;;6.20;82.70;;;;;;4995582;28;20051;-73
2021/03/10 05:24:51;;;;;;;7.75;3.03;;;6.20;82.70;;;;;;4995880;28;20377;-72
2021/03/10 05:27:17;;;;;;;8.32;3.72;;;6.20;82.80;;;;;;4995705;28;20026;-73
2021/03/10 05:29:43;;;;;;;10.73;4.00;;;6.20;82.80;;;;;;4996233;28;20038;-73
2021/03/10 05:32:10;;;;;;;10.13;3.80;;;6.20;82.90;;;;;;4995529;28;20483;-74
2021/03/10 05:34:36;;;;;;;7.95;3.60;;;6.10;83.00;;;;;;4996628;28;20053;-73
2021/03/10 05:37:02;;;;;;;9.13;3.35;;;6.10;83.00;;;;;;4994540;28;20034;-74
2021/03/10 05:39:28;;;;;;;11.05;3.92;;;6.20;83.00;;;;;;4994257;28;20022;-74
2021/03/10 05:41:56;;;;;;;7.13;2.95;;;6.10;82.90;;;;;;4996411;28;20018;-73
2021/03/10 05:44:23;;;;;;;8.13;3.58;;;6.10;82.90;;;;;;4995645;28;20044;-74
2021/03/10 05:46:48;;;;;;;8.77;3.45;;;6.10;83.00;;;;;;4995943;28;20113;-74
2021/03/10 05:49:15;;;;;;;11.88;3.38;;;6.20;83.00;;;;;;4995548;28;20596;-74
2021/03/10 05:51:43;;;;;;;9.07;3.70;;;6.20;83.00;;;;;;4995863;28;20519;-74
2021/03/10 05:54:12;;;;;;;6.72;3.55;;;6.20;82.90;;;;;;4995205;28;20022;-74
2021/03/10 05:56:42;;;;;;;7.38;3.55;;;6.20;82.90;;;;;;4995855;28;20081;-74
2021/03/10 05:59:08;;;;;;;9.63;3.70;;;6.30;82.90;;;;;;5002833;28;20487;-74
2021/03/10 06:01:33;;;;;;;11.82;4.70;;;6.30;82.90;;;;;;4995263;28;20026;-74
2021/03/10 06:04:01;;;;;;;9.27;3.85;;;6.40;82.90;;;;;;4995535;28;20027;-73
2021/03/10 06:06:37;;;;;;;11.80;4.30;;;6.40;82.90;;;;;;4994861;28;20033;-74
2021/03/10 06:09:29;;;;;;;8.80;3.75;;;6.40;82.90;;;;;;4995453;28;20084;-74
2021/03/10 06:11:58;;;;;;;9.35;4.03;;;6.50;82.80;;;;;;4993980;28;20044;-73
2021/03/10 06:14:25;;;;;;;12.80;4.80;;;6.50;82.90;;;;;;5004311;28;20065;-76
2021/03/10 06:17:09;;;;;;;12.68;3.95;;;6.40;82.80;;;;;;5011918;28;20433;-82
2021/03/10 06:19:45;;;;;;;11.18;4.68;;;6.50;83.00;;;;;;5011939;28;20057;-82
2021/03/10 06:22:15;;;;;;;14.55;4.07;;;6.50;83.00;;;;;;5012135;28;20566;-81
2021/03/10 06:24:41;;;;;;;11.95;4.45;;;6.40;83.00;;;;;;4997696;28;20034;-82
2021/03/10 06:27:13;;;;;;;7.55;3.72;;;6.50;83.10;;;;;;5000698;28;20029;-78
2021/03/10 06:29:38;;;;;;;;;;;6.50;83.20;;;;;;5000528;28;20464;-82
2021/03/10 06:32:09;;;;;;;7.57;3.50;;;6.40;83.10;;;;;;5013274;28;19941;-83
2021/03/10 06:34:45;;;;;;;14.35;5.25;;;6.50;83.20;;;;;;5011961;28;20041;-73
2021/03/10 06:37:12;;;;;;;19.25;4.13;;;6.50;83.20;;;;;;5012130;28;20085;-72
2021/03/10 06:39:38;;;;;;;14.93;4.15;;;6.50;83.20;;;;;;5014390;28;20431;-73
2021/03/10 06:42:14;;;;;;;10.65;4.25;;;6.50;83.20;;;;;;5014442;28;20526;-73
2021/03/10 06:44:53;;;;;;;9.77;4.53;;;6.60;83.30;;;;;;5014314;28;20018;-73
2021/03/10 06:47:19;;;;;;;12.73;4.75;;;6.50;83.20;;;;;;5013554;28;20057;-73
2021/03/10 06:49:54;;;;;;;9.70;4.20;;;6.60;83.30;;;;;;5012481;28;20041;-73
2021/03/10 06:52:20;;;;;;;10.63;3.78;;;6.60;83.30;;;;;;5013989;28;20048;-72
2021/03/10 06:54:56;;;;;;;8.80;3.85;;;6.60;83.30;;;;;;5012824;28;20026;-73
2021/03/10 06:57:22;;;;;;;12.10;4.63;;;6.70;83.30;;;;;;5012137;28;20383;-72
2021/03/10 06:59:52;;;;;;;10.95;5.45;;;6.60;83.30;;;;;;5014187;28;20025;-72
2021/03/10 07:02:27;;;;;;;10.75;3.55;;;6.60;83.30;;;;;;5013408;28;20096;-73
2021/03/10 07:04:57;;;;;;;10.10;3.95;;;6.70;83.40;;;;;;5013844;28;20037;-73
2021/03/10 07:07:24;;;;;;;15.63;4.47;;;6.70;83.40;;;;;;5012244;28;20040;-73
2021/03/10 07:09:50;;;;;;;11.05;4.00;;;6.60;83.30;;;;;;5012635;28;20034;-72
2021/03/10 07:12:18;;;;;;;10.10;4.13;;;6.70;83.30;;;;;;5013143;28;20468;-74
2021/03/10 07:14:46;;;;;;;11.27;4.28;;;6.70;83.30;;;;;;5012297;28;20080;-72
2021/03/10 07:17:14;;;;;;;10.10;3.67;;;6.70;83.30;;;;;;5012807;28;20037;-73
2021/03/10 07:19:41;;;;;;;11.02;3.80;;;6.70;83.30;;;;;;5013696;28;20034;-73
2021/03/10 07:22:10;;;;;;;14.25;4.32;;;6.80;83.30;;;;;;5011946;28;20046;-72
2021/03/10 07:24:54;;;;;;;10.10;3.70;;;6.80;83.30;;;;;;5012644;28;20120;-74
2021/03/10 07:27:21;;;;;;;11.45;4.32;;;6.80;83.30;;;;;;5013061;28;20021;-74
2021/03/10 07:29:47;;;;;;;14.88;5.22;;;6.80;83.20;;;;;;5013380;28;20120;-73
2021/03/10 07:32:23;;;;;;;11.38;4.78;;;6.80;83.10;;;;;;5011373;28;20053;-74
2021/03/10 07:35:05;;;;;;;15.93;5.30;;;6.90;83.20;;;;;;5013303;28;20021;-73
2021/03/10 07:37:32;;;;;;;12.15;4.60;;;7.00;83.30;;;;;;5011394;28;20488;-73
2021/03/10 07:40:13;;;;;;;13.57;5.28;;;7.00;83.30;;;;;;5013491;28;20029;-73
2021/03/10 07:42:53;;;;;;;14.90;5.65;;;7.00;83.20;;;;;;5012969;28;20025;-73
2021/03/10 07:45:19;;;;;;;18.83;6.07;;;7.00;83.20;;;;;;5012633;28;20026;-73
2021/03/10 07:47:53;;;;;;;18.70;6.38;;;7.00;83.20;;;;;;5012977;28;20025;-71
2021/03/10 07:50:19;;;;;;;22.55;7.70;;;7.10;83.30;;;;;;5012434;28;20053;-73
2021/03/10 07:52:52;;;;;;;22.27;7.35;;;7.10;83.30;;;;;;5013005;28;20474;-73
2021/03/10 07:55:18;;;;;;;28.73;11.90;;;7.20;83.40;;;;;;5012218;28;20106;-73
2021/03/10 07:57:54;;;;;;;27.08;10.02;;;7.20;83.40;;;;;;5011483;28;20109;-73
2021/03/10 08:00:20;;;;;;;24.50;9.45;;;7.20;83.50;;;;;;5010981;28;20416;-73
2021/03/10 08:02:48;;;;;;;23.48;9.40;;;7.20;83.60;;;;;;5012841;28;20022;-73
2021/03/10 08:05:25;;;;;;;20.63;8.55;;;7.20;83.60;;;;;;5011522;28;20030;-73
2021/03/10 08:08:09;;;;;;;20.27;9.73;;;7.30;83.80;;;;;;5012974;28;20063;-74
2021/03/10 08:10:36;;;;;;;24.20;9.73;;;7.40;83.80;;;;;;5012203;28;20021;-73
2021/03/10 08:13:20;;;;;;;25.05;9.57;;;7.40;83.80;;;;;;5011162;28;20069;-72
2021/03/10 08:15:47;;;;;;;21.88;9.77;;;7.40;83.80;;;;;;5011258;28;20022;-72
2021/03/10 08:18:19;;;;;;;22.83;8.50;;;7.40;83.70;;;;;;5011374;28;20025;-73
2021/03/10 08:20:44;;;;;;;22.95;9.05;;;7.50;83.70;;;;;;5011549;28;20022;-73
2021/03/10 08:23:10;;;;;;;22.65;7.68;;;7.50;83.70;;;;;;5012306;28;20504;-72
2021/03/10 08:25:36;;;;;;;21.60;8.60;;;7.60;83.60;;;;;;5011966;28;20268;-73
2021/03/10 08:28:13;;;;;;;26.25;8.55;;;7.60;83.60;;;;;;5010914;28;20046;-73
2021/03/10 08:30:39;;;;;;;25.52;8.65;;;7.70;83.70;;;;;;5011772;28;20045;-73
2021/03/10 08:33:06;;;;;;;18.52;7.72;;;7.70;83.70;;;;;;5010948;28;20022;-73
2021/03/10 08:35:32;;;;;;;21.73;8.38;;;7.70;83.60;;;;;;5011732;28;20030;-72
2021/03/10 08:38:00;;;;;;;23.42;8.40;;;7.80;83.60;;;;;;5012115;28;20021;-73
2021/03/10 08:40:29;;;;;;;19.67;8.60;;;7.80;83.50;;;;;;5011591;28;20022;-73
2021/03/10 08:42:59;;;;;;;21.45;8.80;;;7.80;83.50;;;;;;5012191;28;20036;-73
2021/03/10 08:45:34;;;;;;;21.80;8.35;;;7.90;83.50;;;;;;5011714;28;20026;-73
2021/03/10 08:48:04;;;;;;;23.83;8.95;;;7.90;83.50;;;;;;5011720;28;20392;-73
2021/03/10 08:50:44;;;;;;;29.48;10.13;;;7.90;83.50;;;;;;5010055;28;20025;-73
2021/03/10 08:53:14;;;;;;;25.27;8.88;;;8.00;83.50;;;;;;5011585;28;20076;-73
2021/03/10 08:55:41;;;;;;;27.90;12.30;;;8.00;83.50;;;;;;5008732;28;20558;-74
2021/03/10 08:58:12;;;;;;;28.30;10.43;;;8.00;83.60;;;;;;5011651;28;20056;-73
2021/03/10 09:00:39;;;;;;;24.27;9.75;;;8.00;83.60;;;;;;5011171;28;20033;-73
2021/03/10 09:03:23;;;;;;;32.47;10.85;;;8.00;83.50;;;;;;5011457;28;20045;-73
2021/03/10 09:05:50;;;;;;;23.55;9.85;;;8.10;83.50;;;;;;5011752;28;20064;-73
2021/03/10 09:08:21;;;;;;;23.88;9.80;;;8.10;83.50;;;;;;5010253;28;20087;-73
2021/03/10 09:10:55;;;;;;;24.92;10.65;;;8.10;83.50;;;;;;5010045;28;20384;-72
2021/03/10 09:13:24;;;;;;;24.95;11.43;;;8.20;83.50;;;;;;5010705;28;20369;-74
2021/03/10 09:15:50;;;;;;;22.20;8.20;;;8.20;83.60;;;;;;5011564;28;20026;-74
2021/03/10 09:18:16;;;;;;;25.15;9.45;;;8.20;83.50;;;;;;5011749;28;20590;-73
2021/03/10 09:20:44;;;;;;;24.70;10.07;;;8.20;83.50;;;;;;5010862;28;20111;-73
2021/03/10 09:23:24;;;;;;;23.55;10.13;;;8.20;83.50;;;;;;5009645;28;20040;-73
2021/03/10 09:25:56;;;;;;;28.48;9.10;;;8.30;83.40;;;;;;5010080;28;20057;-73
2021/03/10 09:28:23;;;;;;;20.33;9.50;;;8.30;83.40;;;;;;5010906;28;20078;-73
2021/03/10 09:30:51;;;;;;;26.23;9.27;;;8.30;83.30;;;;;;5010007;28;20502;-73
2021/03/10 09:33:23;;;;;;;26.35;9.20;;;8.40;83.30;;;;;;5011402;28;20022;-74
2021/03/10 09:35:56;;;;;;;23.40;9.13;;;8.40;83.20;;;;;;5009851;28;20045;-73
2021/03/10 09:38:23;;;;;;;26.73;9.15;;;8.50;83.10;;;;;;5011116;28;20030;-76
2021/03/10 09:40:57;;;;;;;29.60;10.63;;;8.50;83.10;;;;;;5009770;28;20049;-72
2021/03/10 09:43:25;;;;;;;19.98;8.57;;;8.50;82.90;;;;;;5009692;28;20022;-75
2021/03/10 09:45:56;;;;;;;22.45;9.48;;;8.60;82.90;;;;;;5009863;28;20405;-74
2021/03/10 09:48:32;;;;;;;29.73;10.98;;;8.60;82.80;;;;;;5009864;28;20044;-72
2021/03/10 09:51:08;;;;;;;24.48;8.23;;;8.60;82.90;;;;;;5009919;28;20119;-73
2021/03/10 09:53:57;;;;;;;24.13;9.00;;;8.70;82.80;;;;;;5009359;28;20065;-74
2021/03/10 09:56:24;;;;;;;21.50;9.07;;;8.70;82.80;;;;;;5010311;28;20032;-75
2021/03/10 09:58:58;;;;;;;23.30;9.90;;;8.70;82.70;;;;;;5009513;28;20022;-72
2021/03/10 10:01:25;;;;;;;20.60;7.30;;;8.80;82.70;;;;;;5010407;28;20021;-74
2021/03/10 10:03:53;;;;;;;20.23;8.88;;;8.80;82.60;;;;;;5011185;28;20068;-74
2021/03/10 10:06:20;;;;;;;22.27;9.13;;;8.90;82.50;;;;;;5011923;28;20028;-73
2021/03/10 10:08:46;;;;;;;21.23;8.30;;;8.90;82.40;;;;;;5013843;28;20129;-73
2021/03/10 10:11:17;;;;;;;22.35;8.15;;;9.00;82.40;;;;;;5014726;28;20046;-74
2021/03/10 10:13:45;;;;;;;23.73;8.98;;;9.00;82.20;;;;;;5014087;28;20480;-73
2021/03/10 10:16:11;;;;;;;22.95;8.25;;;9.00;82.20;;;;;;5014618;28;20026;-73
2021/03/10 10:18:37;;;;;;;24.52;9.10;;;9.10;82.10;;;;;;5013798;28;20430;-73
2021/03/10 10:21:04;;;;;;;25.85;9.52;;;9.10;82.00;;;;;;5013340;28;20116;-74
2021/03/10 10:23:30;;;;;;;20.58;7.63;;;9.10;82.00;;;;;;5013221;28;20050;-74
2021/03/10 10:25:56;;;;;;;22.70;7.45;;;9.10;82.10;;;;;;5014277;28;20439;-73
2021/03/10 10:28:23;;;;;;;22.40;8.07;;;9.10;82.00;;;;;;5014297;28;20523;-73
2021/03/10 10:30:49;;;;;;;22.25;7.90;;;9.20;82.00;;;;;;5013544;28;20057;-71
2021/03/10 10:33:15;;;;;;;23.20;9.35;;;9.20;81.80;;;;;;5014167;28;20026;-73
2021/03/10 10:35:40;;;;;;;20.27;8.38;;;9.30;81.80;;;;;;5013496;28;20032;-72
2021/03/10 10:38:09;;;;;;;15.50;7.05;;;9.30;81.60;;;;;;5014095;28;20026;-73
2021/03/10 10:40:35;;;;;;;20.30;7.05;;;9.30;81.50;;;;;;5012269;28;20034;-73
2021/03/10 10:43:04;;;;;;;25.20;8.52;;;9.40;81.50;;;;;;5013024;28;20026;-74
2021/03/10 10:45:30;;;;;;;19.80;8.60;;;9.40;81.30;;;;;;5013764;28;20026;-74
2021/03/10 10:47:56;;;;;;;20.90;8.07;;;9.50;81.00;;;;;;5014199;28;20517;-72
2021/03/10 10:50:21;;;;;;;20.65;8.88;;;9.60;80.90;;;;;;5013809;28;20387;-73
2021/03/10 10:52:48;;;;;;;17.08;7.75;;;9.60;80.70;;;;;;5012033;28;20053;-73
2021/03/10 10:55:17;;;;;;;20.13;7.88;;;9.60;80.50;;;;;;5012999;28;20041;-73
2021/03/10 10:57:44;;;;;;;22.42;8.50;;;9.60;80.30;;;;;;5012155;28;20017;-72
2021/03/10 11:00:12;;;;;;;21.42;7.57;;;9.60;80.30;;;;;;5012778;28;20025;-73
2021/03/10 11:02:38;;;;;;;18.10;7.97;;;9.70;80.00;;;;;;5013279;28;20021;-73
2021/03/10 11:05:05;;;;;;;18.98;7.45;;;9.70;79.90;;;;;;5013865;28;20353;-72
2021/03/10 11:07:31;;;;;;;17.98;7.85;;;9.70;80.00;;;;;;5013091;28;20435;-73
2021/03/10 11:09:56;;;;;;;20.20;8.05;;;9.60;79.70;;;;;;5013638;28;20065;-74
2021/03/10 11:12:22;;;;;;;17.58;5.88;;;9.70;79.70;;;;;;5013740;28;20361;-74
2021/03/10 11:14:48;;;;;;;17.35;7.75;;;9.70;79.60;;;;;;5013263;28;20025;-73
2021/03/10 11:17:14;;;;;;;20.98;7.80;;;9.70;79.40;;;;;;5013554;28;20029;-73
2021/03/10 11:19:39;;;;;;;20.58;7.38;;;9.70;79.00;;;;;;5011121;28;20030;-73
2021/03/10 11:22:07;;;;;;;14.23;6.47;;;9.70;79.10;;;;;;5013568;28;20025;-73
2021/03/10 11:24:33;;;;;;;15.00;6.25;;;9.70;79.20;;;;;;5011130;28;20131;-74
2021/03/10 11:26:59;;;;;;;21.33;7.18;;;9.70;79.00;;;;;;5013572;28;20026;-73
2021/03/10 11:29:25;;;;;;;17.10;6.47;;;9.80;79.60;;;;;;5013306;28;20121;-74
2021/03/10 11:31:51;;;;;;;17.13;6.88;;;9.80;78.80;;;;;;5013061;28;20102;-74
2021/03/10 11:34:16;;;;;;;16.95;5.95;;;9.80;78.40;;;;;;5013396;28;20017;-72
2021/03/10 11:36:42;;;;;;;17.65;5.97;;;9.90;78.30;;;;;;5012462;28;20440;-73
2021/03/10 11:39:08;;;;;;;16.83;6.47;;;9.90;78.30;;;;;;5013497;28;20084;-73
2021/03/10 11:41:34;;;;;;;15.77;6.35;;;9.90;78.20;;;;;;5012320;28;20464;-73
2021/03/10 11:44:02;;;;;;;18.23;6.70;;;10.00;78.00;;;;;;5013142;28;20073;-74
2021/03/10 11:46:28;;;;;;;15.18;6.18;;;10.00;77.80;;;;;;5013119;28;20464;-73
2021/03/10 11:48:53;;;;;;;14.27;5.07;;;10.10;77.60;;;;;;5011051;28;20034;-73
2021/03/10 11:51:19;;;;;;;12.10;5.47;;;10.10;77.40;;;;;;5012747;28;20029;-72
2021/03/10 11:53:45;;;;;;;13.73;6.68;;;10.20;76.90;;;;;;5011173;28;20021;-73
2021/03/10 11:56:11;;;;;;;16.08;6.30;;;10.20;76.70;;;;;;5012935;28;20022;-72
2021/03/10 11:58:37;;;;;;;15.65;5.70;;;10.20;76.60;;;;;;5012059;28;20026;-73
2021/03/10 12:01:03;;;;;;;10.85;5.63;;;10.20;76.60;;;;;;5011709;28;20022;-73
2021/03/10 12:03:28;;;;;;;15.63;5.80;;;10.20;76.60;;;;;;5011485;28;20049;-74
2021/03/10 12:05:54;;;;;;;11.00;4.68;;;10.30;76.50;;;;;;5011910;28;20026;-74
2021/03/10 12:08:20;;;;;;;8.95;4.40;;;10.30;76.50;;;;;;5011514;28;20049;-72
2021/03/10 12:10:45;;;;;;;14.45;6.03;;;10.30;76.10;;;;;;5010835;28;20108;-74
2021/03/10 12:13:11;;;;;;;12.82;5.18;;;10.40;75.60;;;;;;5012705;28;20524;-73
2021/03/10 12:15:38;;;;;;;12.02;5.32;;;10.40;75.40;;;;;;5010662;28;20025;-73
2021/03/10 12:18:05;;;;;;;12.65;5.28;;;10.40;75.20;;;;;;5012623;28;20028;-72
2021/03/10 12:20:30;;;;;;;11.80;4.93;;;10.50;75.10;;;;;;5012273;28;20022;-72
2021/03/10 12:22:56;;;;;;;14.32;4.95;;;10.50;75.10;;;;;;5011417;28;20409;-73
2021/03/10 12:25:22;;;;;;;11.85;5.00;;;10.60;74.70;;;;;;5011476;28;20066;-73
2021/03/10 12:27:48;;;;;;;16.33;6.10;;;10.60;74.30;;;;;;5012153;28;20022;-74
2021/03/10 12:30:14;;;;;;;15.10;5.82;;;10.60;74.00;;;;;;5012589;28;20444;-75
2021/03/10 12:32:40;;;;;;;12.25;4.60;;;10.60;73.80;;;;;;5011934;28;20050;-73
2021/03/10 12:35:06;;;;;;;10.38;4.57;;;10.70;73.80;;;;;;5012558;28;20060;-73
2021/03/10 12:37:32;;;;;;;13.20;5.05;;;10.80;73.60;;;;;;5011009;28;20484;-72
2021/03/10 12:39:59;;;;;;;14.13;5.82;;;10.80;73.40;;;;;;5011400;28;20045;-74
2021/03/10 12:42:25;;;;;;;11.68;4.45;;;10.90;73.00;;;;;;5012004;28;20379;-73
2021/03/10 12:44:51;;;;;;;13.18;5.45;;;11.00;73.00;;;;;;5011480;28;20079;-73
2021/03/10 12:47:18;;;;;;;12.02;5.32;;;11.00;72.90;;;;;;5011877;28;20026;-73
2021/03/10 12:49:45;;;;;;;12.70;5.05;;;11.10;72.50;;;;;;5011377;28;20026;-74
2021/03/10 12:52:10;;;;;;;13.60;5.63;;;11.20;72.30;;;;;;5011968;28;20022;-73
2021/03/10 12:54:37;;;;;;;13.80;5.05;;;11.20;71.70;;;;;;5012036;28;20354;-74
2021/03/10 12:57:03;;;;;;;10.75;4.75;;;11.20;71.50;;;;;;5011858;28;20033;-73